createdAt,value
2018-12-24T00:01:32.309Z,1.10
2018-12-24T00:04:02.271Z,0.90
2018-12-24T00:06:30.509Z,1.10
2018-12-24T00:08:57.985Z,1.13
2018-12-24T00:11:25.454Z,1.07
2018-12-24T00:13:53.732Z,0.90
2018-12-24T00:16:21.192Z,1.07
2018-12-24T00:18:48.642Z,1.20
2018-12-24T00:21:16.214Z,1.00
2018-12-24T00:23:43.789Z,2.00
2018-12-24T00:26:11.370Z,1.05
2018-12-24T00:28:39.651Z,1.20
2018-12-24T00:31:07.878Z,1.17
2018-12-24T00:33:35.336Z,1.07
2018-12-24T00:36:04.489Z,1.43
2018-12-24T00:38:32.727Z,0.90
2018-12-24T00:41:00.185Z,1.30
2018-12-24T00:43:27.664Z,0.90
2018-12-24T00:45:55.237Z,1.30
2018-12-24T00:48:23.501Z,1.20
2018-12-24T00:50:51.075Z,1.63
2018-12-24T00:53:18.538Z,1.60
2018-12-24T00:55:46.015Z,1.33
2018-12-24T00:58:14.265Z,1.43
2018-12-24T01:00:41.730Z,1.07
2018-12-24T01:03:09.189Z,1.23
2018-12-24T01:05:36.665Z,1.40
2018-12-24T01:08:04.118Z,1.80
2018-12-24T01:10:32.338Z,1.40
2018-12-24T01:13:00.572Z,1.80
2018-12-24T01:15:28.050Z,1.90
2018-12-24T01:17:55.525Z,2.07
2018-12-24T01:20:22.977Z,2.07
2018-12-24T01:22:50.525Z,1.90
2018-12-24T01:25:17.982Z,2.17
2018-12-24T01:27:45.450Z,1.93
2018-12-24T01:30:12.912Z,2.47
2018-12-24T01:32:40.379Z,1.73
2018-12-24T01:35:07.839Z,1.83
2018-12-24T01:37:35.281Z,1.60
2018-12-24T01:40:02.752Z,1.60
2018-12-24T01:42:33.452Z,1.40
2018-12-24T01:44:57.696Z,1.20
2018-12-24T01:47:25.141Z,1.20
2018-12-24T01:49:52.622Z,1.40
2018-12-24T01:52:20.181Z,1.80
2018-12-24T01:54:48.453Z,1.53
2018-12-24T01:57:15.910Z,1.20
2018-12-24T01:59:43.381Z,1.57
2018-12-24T02:02:10.949Z,1.40
2018-12-24T02:04:38.408Z,0.97
2018-12-24T02:07:05.972Z,1.13
2018-12-24T02:09:33.433Z,0.97
2018-12-24T02:12:00.994Z,1.00
2018-12-24T02:14:28.458Z,1.00
2018-12-24T02:16:56.017Z,1.00
2018-12-24T02:19:23.469Z,1.00
2018-12-24T02:21:50.935Z,1.10
2018-12-24T02:24:18.393Z,1.00
2018-12-24T02:26:45.869Z,0.80
2018-12-24T02:29:13.429Z,0.90
2018-12-24T02:31:41.000Z,0.83
2018-12-24T02:34:08.440Z,1.10
2018-12-24T02:36:35.894Z,1.10
2018-12-24T02:39:03.707Z,1.23
2018-12-24T02:41:31.981Z,1.10
2018-12-24T02:43:59.529Z,2.20
2018-12-24T02:46:27.002Z,1.30
2018-12-24T02:48:54.457Z,1.40
2018-12-24T02:51:22.028Z,1.30
2018-12-24T02:53:49.485Z,1.40
2018-12-24T02:56:16.947Z,1.87
2018-12-24T02:58:44.389Z,1.30
2018-12-24T03:01:11.841Z,1.20
2018-12-24T03:03:39.330Z,1.30
2018-12-24T03:06:06.792Z,1.00
2018-12-24T03:08:34.241Z,1.33
2018-12-24T03:11:01.701Z,0.87
2018-12-24T03:13:29.164Z,1.00
2018-12-24T03:15:56.625Z,1.00
2018-12-24T03:18:24.087Z,1.00
2018-12-24T03:20:51.552Z,1.10
2018-12-24T03:23:19.844Z,0.90
2018-12-24T03:25:47.291Z,0.97
2018-12-24T03:28:14.748Z,1.07
2018-12-24T03:30:42.195Z,1.30
2018-12-24T03:33:09.643Z,1.17
2018-12-24T03:35:37.155Z,1.27
2018-12-24T03:38:04.619Z,1.03
2018-12-24T03:40:32.246Z,1.33
2018-12-24T03:43:00.320Z,1.70
2018-12-24T03:45:27.800Z,1.30
2018-12-24T03:47:55.253Z,1.50
2018-12-24T03:50:22.715Z,1.30
2018-12-24T03:52:50.202Z,1.27
2018-12-24T03:55:17.646Z,1.10
2018-12-24T03:57:45.110Z,1.23
2018-12-24T04:00:12.690Z,0.93
2018-12-24T04:02:40.141Z,1.50
2018-12-24T04:05:07.591Z,1.40
2018-12-24T04:07:35.072Z,1.40
2018-12-24T04:10:02.543Z,1.50
2018-12-24T04:12:30.158Z,1.60
2018-12-24T04:14:57.614Z,1.50
2018-12-24T04:17:25.141Z,1.90
2018-12-24T04:19:52.600Z,2.03
2018-12-24T04:22:20.064Z,1.90
2018-12-24T04:24:47.511Z,1.80
2018-12-24T04:27:14.985Z,1.90
2018-12-24T04:29:42.540Z,1.50
2018-12-24T04:32:10.102Z,1.40
2018-12-24T04:34:37.669Z,1.27
2018-12-24T04:37:06.377Z,1.43
2018-12-24T04:39:33.837Z,1.60
2018-12-24T04:42:01.292Z,1.37
2018-12-24T04:44:28.750Z,1.30
2018-12-24T04:46:56.206Z,1.00
2018-12-24T04:49:23.674Z,0.90
2018-12-24T04:51:51.128Z,0.97
2018-12-24T04:54:18.690Z,1.10
2018-12-24T04:56:46.142Z,0.77
2018-12-24T04:59:13.709Z,0.97
2018-12-24T05:01:41.165Z,0.93
2018-12-24T05:04:08.612Z,0.90
2018-12-24T05:06:36.091Z,1.00
2018-12-24T05:09:04.754Z,1.02
2018-12-24T05:11:32.480Z,0.90
2018-12-24T05:14:00.710Z,0.90
2018-12-24T05:16:28.197Z,1.00
2018-12-24T05:18:55.763Z,0.70
2018-12-24T05:21:23.211Z,0.90
2018-12-24T05:23:50.685Z,1.17
2018-12-24T05:26:18.124Z,1.07
2018-12-24T05:28:45.582Z,1.10
2018-12-24T05:31:13.066Z,1.10
2018-12-24T05:33:40.599Z,1.10
2018-12-24T05:36:08.009Z,0.80
2018-12-24T05:38:36.233Z,0.73
2018-12-24T05:41:03.938Z,1.00
2018-12-24T05:43:31.514Z,0.87
2018-12-24T05:46:00.482Z,0.60
2018-12-24T05:48:27.987Z,0.70
2018-12-24T05:50:55.444Z,0.93
2018-12-24T05:53:23.678Z,1.10
2018-12-24T05:55:51.160Z,0.90
2018-12-24T05:58:18.619Z,1.07
2018-12-24T06:00:46.147Z,1.00
2018-12-24T06:03:13.614Z,1.00
2018-12-24T06:05:41.062Z,0.80
2018-12-24T06:08:09.265Z,1.00
2018-12-24T06:10:36.751Z,1.10
2018-12-24T06:13:04.215Z,1.33
2018-12-24T06:15:31.664Z,0.90
2018-12-24T06:17:59.125Z,1.00
2018-12-24T06:20:26.584Z,1.10
2018-12-24T06:22:54.036Z,1.20
2018-12-24T06:25:21.622Z,0.90
2018-12-24T06:27:49.861Z,1.57
2018-12-24T06:30:17.895Z,1.37
2018-12-24T06:32:45.402Z,1.00
2018-12-24T06:35:12.906Z,1.10
2018-12-24T06:37:40.474Z,1.20
2018-12-24T06:40:07.936Z,0.90
2018-12-24T06:42:35.398Z,0.97
2018-12-24T06:45:03.767Z,1.07
2018-12-24T06:47:31.238Z,1.00
2018-12-24T06:49:58.689Z,1.00
2018-12-24T06:52:26.157Z,0.80
2018-12-24T06:54:53.609Z,1.07
2018-12-24T06:57:21.069Z,0.80
2018-12-24T06:59:48.520Z,0.90
2018-12-24T07:02:15.992Z,1.20
2018-12-24T07:04:43.471Z,0.90
2018-12-24T07:07:10.914Z,1.30
2018-12-24T07:09:38.376Z,0.80
2018-12-24T07:12:05.863Z,0.93
2018-12-24T07:14:33.306Z,1.00
2018-12-24T07:17:00.767Z,0.80
2018-12-24T07:19:28.237Z,1.20
2018-12-24T07:21:55.688Z,0.90
2018-12-24T07:24:23.266Z,1.00
2018-12-24T07:26:50.828Z,1.20
2018-12-24T07:29:18.309Z,1.10
2018-12-24T07:31:45.849Z,1.07
2018-12-24T07:34:13.308Z,1.30
2018-12-24T07:36:40.766Z,1.13
2018-12-24T07:39:08.348Z,1.17
2018-12-24T07:41:35.900Z,0.90
2018-12-24T07:44:03.789Z,1.07
2018-12-24T07:46:31.261Z,1.30
2018-12-24T07:48:58.807Z,1.00
2018-12-24T07:51:26.376Z,0.90
2018-12-24T07:53:53.830Z,1.10
2018-12-24T07:56:21.390Z,1.40
2018-12-24T07:58:48.839Z,0.90
2018-12-24T08:01:16.306Z,1.20
2018-12-24T08:03:43.889Z,0.97
2018-12-24T08:06:11.347Z,1.03
2018-12-24T08:08:38.803Z,1.37
2018-12-24T08:11:06.260Z,1.00
2018-12-24T08:13:33.720Z,0.83
2018-12-24T08:16:01.180Z,1.20
2018-12-24T08:18:28.653Z,1.00
2018-12-24T08:20:57.121Z,1.20
2018-12-24T08:23:24.580Z,1.17
2018-12-24T08:25:52.031Z,1.23
2018-12-24T08:28:19.493Z,1.30
2018-12-24T08:30:47.001Z,1.10
2018-12-24T08:33:14.460Z,1.00
2018-12-24T08:35:41.916Z,0.90
2018-12-24T08:38:09.481Z,1.50
2018-12-24T08:40:37.041Z,1.37
2018-12-24T08:43:04.503Z,1.17
2018-12-24T08:45:31.970Z,1.13
2018-12-24T08:47:59.424Z,1.33
2018-12-24T08:50:26.903Z,0.90
2018-12-24T08:52:55.848Z,1.40
2018-12-24T08:55:23.313Z,1.23
2018-12-24T08:57:50.773Z,1.53
2018-12-24T09:00:18.233Z,1.40
2018-12-24T09:02:45.686Z,1.30
2018-12-24T09:05:13.149Z,1.17
2018-12-24T09:07:40.626Z,1.60
2018-12-24T09:10:08.700Z,1.47
2018-12-24T09:12:36.249Z,1.20
2018-12-24T09:15:04.746Z,1.23
2018-12-24T09:17:32.246Z,1.47
2018-12-24T09:19:59.717Z,1.63
2018-12-24T09:22:27.262Z,1.27
2018-12-24T09:24:54.830Z,0.90
2018-12-24T09:27:22.405Z,1.43
2018-12-24T09:29:49.858Z,1.70
2018-12-24T09:32:17.420Z,1.30
2018-12-24T09:34:44.882Z,1.00
2018-12-24T09:37:12.459Z,1.83
2018-12-24T09:39:39.929Z,1.07
2018-12-24T09:42:07.420Z,1.50
2018-12-24T09:44:35.635Z,0.90
2018-12-24T09:47:04.617Z,1.97
2018-12-24T09:49:32.076Z,1.83
2018-12-24T09:51:59.644Z,2.47
2018-12-24T09:54:27.165Z,1.90
2018-12-24T09:56:55.514Z,2.73
2018-12-24T09:59:22.984Z,1.57
2018-12-24T10:01:50.557Z,1.60
2018-12-24T10:04:18.045Z,1.57
2018-12-24T10:06:46.258Z,2.00
2018-12-24T10:09:13.763Z,1.40
2018-12-24T10:11:41.260Z,1.13
2018-12-24T10:14:08.775Z,1.70
2018-12-24T10:16:36.236Z,1.83
2018-12-24T10:19:03.792Z,1.60
2018-12-24T10:21:31.383Z,1.23
2018-12-24T10:23:58.828Z,1.63
2018-12-24T10:26:26.393Z,1.80
2018-12-24T10:28:53.964Z,2.10
2018-12-24T10:31:21.421Z,1.60
2018-12-24T10:33:48.891Z,1.87
2018-12-24T10:36:16.351Z,2.10
2018-12-24T10:38:43.813Z,1.30
2018-12-24T10:41:11.277Z,1.60
2018-12-24T10:43:38.734Z,1.70
2018-12-24T10:46:06.176Z,1.50
2018-12-24T10:48:33.658Z,1.77
2018-12-24T10:51:01.123Z,1.47
2018-12-24T10:53:29.369Z,1.40
2018-12-24T10:55:56.858Z,1.10
2018-12-24T10:58:24.341Z,1.20
2018-12-24T11:00:51.891Z,1.63
2018-12-24T11:03:19.559Z,1.30
2018-12-24T11:05:47.062Z,1.60
2018-12-24T11:08:14.571Z,1.40
2018-12-24T11:10:42.147Z,1.47
2018-12-24T11:13:09.705Z,1.70
2018-12-24T11:15:37.349Z,1.50
2018-12-24T11:18:04.813Z,1.50
2018-12-24T11:20:32.311Z,1.27
2018-12-24T11:23:00.333Z,1.70
2018-12-24T11:25:27.845Z,1.57
2018-12-24T11:27:56.121Z,1.70
2018-12-24T11:30:23.601Z,1.60
2018-12-24T11:32:51.133Z,1.73
2018-12-24T11:35:18.612Z,1.90
2018-12-24T11:37:46.116Z,1.47
2018-12-24T11:40:14.531Z,1.97
2018-12-24T11:42:42.020Z,2.23
2018-12-24T11:45:09.491Z,1.90
2018-12-24T11:47:37.644Z,1.60
2018-12-24T11:50:07.864Z,1.40
2018-12-24T11:52:35.380Z,1.43
2018-12-24T11:55:02.913Z,1.70
2018-12-24T11:57:31.245Z,1.30
2018-12-24T11:59:58.701Z,1.30
2018-12-24T12:02:26.186Z,1.50
2018-12-24T12:04:53.650Z,1.50
2018-12-24T12:07:21.119Z,1.50
2018-12-24T12:09:48.584Z,1.57
2018-12-24T12:12:16.036Z,1.40
2018-12-24T12:14:43.511Z,1.40
2018-12-24T12:17:10.979Z,1.30
2018-12-24T12:19:38.541Z,1.20
2018-12-24T12:22:06.059Z,1.30
2018-12-24T12:24:33.562Z,2.03
2018-12-24T12:27:01.030Z,1.70
2018-12-24T12:29:28.584Z,1.30
2018-12-24T12:31:56.054Z,1.37
2018-12-24T12:34:23.610Z,1.03
2018-12-24T12:36:51.065Z,1.20
2018-12-24T12:39:18.531Z,1.20
2018-12-24T12:41:46.017Z,1.17
2018-12-24T12:44:13.578Z,1.00
2018-12-24T12:46:41.718Z,1.40
2018-12-24T12:49:09.211Z,1.40
2018-12-24T12:51:36.694Z,1.30
2018-12-24T12:54:04.248Z,1.30
2018-12-24T12:56:31.695Z,1.57
2018-12-24T12:58:59.258Z,1.30
2018-12-24T13:01:26.823Z,1.23
2018-12-24T13:03:54.301Z,1.23
2018-12-24T13:06:21.762Z,1.25
2018-12-24T13:08:49.213Z,1.43
2018-12-24T13:11:16.782Z,1.60
2018-12-24T13:13:44.261Z,1.97
2018-12-24T13:16:12.477Z,1.20
2018-12-24T13:18:39.954Z,1.40
2018-12-24T13:21:07.458Z,1.20
2018-12-24T13:23:34.931Z,1.60
2018-12-24T13:26:04.089Z,1.70
2018-12-24T13:28:31.559Z,1.80
2018-12-24T13:30:59.029Z,1.67
2018-12-24T13:33:26.498Z,1.50
2018-12-24T13:35:54.047Z,1.27
2018-12-24T13:38:21.518Z,1.10
2018-12-24T13:40:49.755Z,1.57
2018-12-24T13:43:17.261Z,1.50
2018-12-24T13:45:44.742Z,1.30
2018-12-24T13:48:12.293Z,1.43
2018-12-24T13:50:40.533Z,1.57
2018-12-24T13:53:08.869Z,1.20
2018-12-24T13:55:36.325Z,1.50
2018-12-24T13:58:04.768Z,1.50
2018-12-24T14:00:32.801Z,1.27
2018-12-24T14:03:01.067Z,1.50
2018-12-24T14:05:28.514Z,1.20
2018-12-24T14:07:55.959Z,1.00
2018-12-24T14:10:23.426Z,1.47
2018-12-24T14:12:50.891Z,1.37
2018-12-24T14:15:18.351Z,1.23
2018-12-24T14:17:45.806Z,1.27
2018-12-24T14:20:13.255Z,1.17
2018-12-24T14:22:40.737Z,1.77
2018-12-24T14:25:08.789Z,1.60
2018-12-24T14:27:36.273Z,1.40
2018-12-24T14:30:04.631Z,1.33
2018-12-24T14:32:32.153Z,1.33
2018-12-24T14:34:59.594Z,1.40
2018-12-24T14:37:27.062Z,1.20
2018-12-24T14:39:54.508Z,1.07
2018-12-24T14:42:21.999Z,1.40
2018-12-24T14:44:50.249Z,1.10
2018-12-24T14:47:17.804Z,1.20
2018-12-24T14:49:45.375Z,1.10
2018-12-24T14:52:12.843Z,1.10
2018-12-24T14:54:41.831Z,1.20
2018-12-24T14:57:09.306Z,1.50
2018-12-24T14:59:36.771Z,1.27
2018-12-24T15:02:05.034Z,1.33
2018-12-24T15:04:32.497Z,1.20
2018-12-24T15:07:00.070Z,1.07
2018-12-24T15:09:27.526Z,1.20
2018-12-24T15:11:54.972Z,1.27
2018-12-24T15:14:22.433Z,1.40
2018-12-24T15:16:49.920Z,1.47
2018-12-24T15:19:17.397Z,1.50
2018-12-24T15:21:44.940Z,1.43
2018-12-24T15:24:12.409Z,1.13
2018-12-24T15:26:39.865Z,1.40
2018-12-24T15:29:07.357Z,1.30
2018-12-24T15:31:35.609Z,1.30
2018-12-24T15:34:04.382Z,1.33
2018-12-24T15:36:32.292Z,1.70
2018-12-24T15:38:59.300Z,1.37
2018-12-24T15:41:26.773Z,1.60
2018-12-24T15:43:54.350Z,1.63
2018-12-24T15:46:21.908Z,1.57
2018-12-24T15:48:49.365Z,2.20
2018-12-24T15:51:16.940Z,1.90
2018-12-24T15:53:44.394Z,1.13
2018-12-24T15:56:11.963Z,1.60
2018-12-24T15:58:39.433Z,1.20
2018-12-24T16:01:06.902Z,1.10
2018-12-24T16:03:36.933Z,1.20
2018-12-24T16:06:04.063Z,1.50
2018-12-24T16:08:31.517Z,1.70
2018-12-24T16:10:59.109Z,1.67
2018-12-24T16:13:27.339Z,1.63
2018-12-24T16:15:54.802Z,1.80
2018-12-24T16:18:22.274Z,1.40
2018-12-24T16:20:49.778Z,1.73
2018-12-24T16:23:17.356Z,1.87
2018-12-24T16:25:45.621Z,1.47
2018-12-24T16:28:13.056Z,1.80
2018-12-24T16:30:40.600Z,1.57
2018-12-24T16:33:08.092Z,1.70
2018-12-24T16:35:37.213Z,1.70
2018-12-24T16:38:05.458Z,1.70
2018-12-24T16:40:33.022Z,2.17
2018-12-24T16:43:01.718Z,2.60
2018-12-24T16:45:30.077Z,1.90
2018-12-24T16:47:58.336Z,2.40
2018-12-24T16:50:25.817Z,2.50
2018-12-24T16:52:53.336Z,2.97
2018-12-24T16:55:21.819Z,2.17
2018-12-24T16:57:50.045Z,1.63
2018-12-24T17:00:17.539Z,2.20
2018-12-24T17:02:46.720Z,1.90
2018-12-24T17:05:13.391Z,1.53
2018-12-24T17:07:40.945Z,1.70
2018-12-24T17:10:08.408Z,1.67
2018-12-24T17:12:35.878Z,2.00
2018-12-24T17:15:04.657Z,2.50
2018-12-24T17:17:33.633Z,1.77
2018-12-24T17:20:01.089Z,2.20
2018-12-24T17:22:28.549Z,2.40
2018-12-24T17:24:56.010Z,1.83
2018-12-24T17:27:23.492Z,2.60
2018-12-24T17:29:51.031Z,2.13
2018-12-24T17:32:18.576Z,2.67
2018-12-24T17:34:46.038Z,2.90
2018-12-24T17:37:13.654Z,3.30
2018-12-24T17:39:41.044Z,2.80
2018-12-24T17:42:09.302Z,2.47
2018-12-24T17:44:36.857Z,3.00
2018-12-24T17:47:04.325Z,1.90
2018-12-24T17:49:31.784Z,3.00
2018-12-24T17:51:59.247Z,2.60
2018-12-24T17:54:26.705Z,2.50
2018-12-24T17:56:54.151Z,3.33
2018-12-24T17:59:21.644Z,2.47
2018-12-24T18:01:49.866Z,2.57
2018-12-24T18:04:17.375Z,2.17
2018-12-24T18:06:44.935Z,4.00
2018-12-24T18:09:12.376Z,4.20
2018-12-24T18:11:39.892Z,3.90
2018-12-24T18:14:08.135Z,6.60
2018-12-24T18:16:35.607Z,5.00
2018-12-24T18:19:03.680Z,2.60
2018-12-24T18:21:31.144Z,3.20
2018-12-24T18:23:58.612Z,2.93
2018-12-24T18:26:26.889Z,3.90
2018-12-24T18:28:55.211Z,3.10
2018-12-24T18:31:22.620Z,3.47
2018-12-24T18:33:50.209Z,3.47
2018-12-24T18:36:17.756Z,2.63
2018-12-24T18:38:45.209Z,2.27
2018-12-24T18:41:12.664Z,3.47
2018-12-24T18:43:40.158Z,2.07
2018-12-24T18:46:07.704Z,3.40
2018-12-24T18:48:35.268Z,2.17
2018-12-24T18:51:02.832Z,2.43
2018-12-24T18:53:30.281Z,3.33
2018-12-24T18:55:57.735Z,2.20
2018-12-24T18:58:25.249Z,2.43
2018-12-24T19:00:53.471Z,3.10
2018-12-24T19:03:20.917Z,3.10
2018-12-24T19:05:48.378Z,2.70
2018-12-24T19:08:15.879Z,3.30
2018-12-24T19:10:43.340Z,3.00
2018-12-24T19:13:10.812Z,4.10
2018-12-24T19:15:38.375Z,3.30
2018-12-24T19:18:05.942Z,2.77
2018-12-24T19:20:33.742Z,3.10
2018-12-24T19:23:01.221Z,3.23
2018-12-24T19:25:28.722Z,2.80
2018-12-24T19:27:56.214Z,2.70
2018-12-24T19:30:23.812Z,2.37
2018-12-24T19:32:51.284Z,1.97
2018-12-24T19:35:18.782Z,1.80
2018-12-24T19:37:46.311Z,1.80
2018-12-24T19:40:15.231Z,2.10
2018-12-24T19:42:42.685Z,1.60
2018-12-24T19:45:10.156Z,1.80
2018-12-24T19:47:37.613Z,1.60
2018-12-24T19:50:06.026Z,1.63
2018-12-24T19:52:33.569Z,1.33
2018-12-24T19:55:01.069Z,1.40
2018-12-24T19:57:29.307Z,1.73
2018-12-24T19:59:56.873Z,1.40
2018-12-24T20:02:24.345Z,2.03
2018-12-24T20:04:51.813Z,1.93
2018-12-24T20:07:19.277Z,1.60
2018-12-24T20:09:46.811Z,1.90
2018-12-24T20:12:14.294Z,1.70
2018-12-24T20:14:41.750Z,2.20
2018-12-24T20:17:09.329Z,2.23
2018-12-24T20:19:36.778Z,2.73
2018-12-24T20:22:05.041Z,2.10
2018-12-24T20:24:32.509Z,2.20
2018-12-24T20:26:59.975Z,2.17
2018-12-24T20:29:27.441Z,2.27
2018-12-24T20:31:54.915Z,2.37
2018-12-24T20:34:22.469Z,1.60
2018-12-24T20:36:50.842Z,2.17
2018-12-24T20:39:18.346Z,2.30
2018-12-24T20:41:45.810Z,2.00
2018-12-24T20:44:14.070Z,2.60
2018-12-24T20:46:41.624Z,2.10
2018-12-24T20:49:09.121Z,2.20
2018-12-24T20:51:36.564Z,1.77
2018-12-24T20:54:04.787Z,2.00
2018-12-24T20:56:32.261Z,2.00
2018-12-24T20:58:59.755Z,1.90
2018-12-24T21:01:27.217Z,1.80
2018-12-24T21:03:54.675Z,1.70
2018-12-24T21:06:22.229Z,1.43
2018-12-24T21:08:49.704Z,1.60
2018-12-24T21:11:17.256Z,2.00
2018-12-24T21:13:44.732Z,1.87
2018-12-24T21:16:13.006Z,2.90
2018-12-24T21:18:41.610Z,2.23
2018-12-24T21:21:08.023Z,2.33
2018-12-24T21:23:35.495Z,3.30
2018-12-24T21:26:03.872Z,1.80
2018-12-24T21:28:31.317Z,2.57
2018-12-24T21:30:58.794Z,1.80
2018-12-24T21:33:26.263Z,2.20
2018-12-24T21:35:53.716Z,1.50
2018-12-24T21:38:21.181Z,1.70
2018-12-24T21:40:48.628Z,1.70
2018-12-24T21:43:16.086Z,1.50
2018-12-24T21:45:43.576Z,1.40
2018-12-24T21:48:11.157Z,1.53
2018-12-24T21:50:38.613Z,1.90
2018-12-24T21:53:06.075Z,1.70
2018-12-24T21:55:33.642Z,2.00
2018-12-24T21:58:01.092Z,1.60
2018-12-24T22:00:28.560Z,1.60
2018-12-24T22:02:56.043Z,1.40
2018-12-24T22:05:24.260Z,1.13
2018-12-24T22:07:51.761Z,1.10
2018-12-24T22:10:19.357Z,1.17
2018-12-24T22:12:47.611Z,1.23
2018-12-24T22:15:15.076Z,1.30
2018-12-24T22:17:42.541Z,1.60
2018-12-24T22:20:10.026Z,1.20
2018-12-24T22:22:38.374Z,1.37
2018-12-24T22:25:05.840Z,1.50
2018-12-24T22:27:33.308Z,1.10
2018-12-24T22:30:00.861Z,1.50
2018-12-24T22:32:28.356Z,1.00
2018-12-24T22:34:56.586Z,1.30
2018-12-24T22:37:24.094Z,1.13
2018-12-24T22:39:52.995Z,1.20
2018-12-24T22:42:21.218Z,1.17
2018-12-24T22:44:48.702Z,1.17
2018-12-24T22:47:16.214Z,1.00
2018-12-24T22:49:43.662Z,0.80
2018-12-24T22:52:11.202Z,0.90
2018-12-24T22:54:38.648Z,1.50
2018-12-24T22:57:06.117Z,1.53
2018-12-24T22:59:34.342Z,1.70
2018-12-24T23:02:01.878Z,1.10
2018-12-24T23:04:30.133Z,1.17
2018-12-24T23:06:57.713Z,1.00
2018-12-24T23:09:25.960Z,1.40
2018-12-24T23:11:53.413Z,1.37
2018-12-24T23:14:20.905Z,0.97
2018-12-24T23:16:48.475Z,1.10
2018-12-24T23:19:16.023Z,0.90
2018-12-24T23:21:43.500Z,1.23
2018-12-24T23:24:11.061Z,1.10
2018-12-24T23:26:38.531Z,1.13
2018-12-24T23:29:06.135Z,1.20
2018-12-24T23:31:33.607Z,1.47
2018-12-24T23:34:01.101Z,0.83
2018-12-24T23:36:28.572Z,1.37
2018-12-24T23:38:56.872Z,1.10
2018-12-24T23:41:24.414Z,1.37
2018-12-24T23:43:51.983Z,0.80
2018-12-24T23:46:19.455Z,1.08
2018-12-24T23:48:47.021Z,0.83
2018-12-24T23:51:14.480Z,1.10
2018-12-24T23:53:41.955Z,1.10
2018-12-24T23:56:10.189Z,0.85
2018-12-24T23:58:37.672Z,0.97
